sensor_id;sensor_type;location;lat;lon;timestamp;temperature;humidity
26537;DHT22;14204;51.262;5.488;2023-06-04T00:01:53;16.10;92.40
26537;DHT22;14204;51.262;5.488;2023-06-04T00:04:18;16.10;92.20
26537;DHT22;14204;51.262;5.488;2023-06-04T00:06:44;16.00;92.00
26537;DHT22;14204;51.262;5.488;2023-06-04T00:09:10;16.00;92.50
26537;DHT22;14204;51.262;5.488;2023-06-04T00:11:36;15.80;92.20
26537;DHT22;14204;51.262;5.488;2023-06-04T00:14:02;15.90;91.70
26537;DHT22;14204;51.262;5.488;2023-06-04T00:16:28;15.80;91.30
26537;DHT22;14204;51.262;5.488;2023-06-04T00:18:53;15.90;92.00
26537;DHT22;14204;51.262;5.488;2023-06-04T00:21:19;15.80;92.60
26537;DHT22;14204;51.262;5.488;2023-06-04T00:23:45;15.70;92.60
26537;DHT22;14204;51.262;5.488;2023-06-04T00:26:11;15.70;91.60
26537;DHT22;14204;51.262;5.488;2023-06-04T00:28:36;15.80;91.90
26537;DHT22;14204;51.262;5.488;2023-06-04T00:31:05;15.70;91.80
26537;DHT22;14204;51.262;5.488;2023-06-04T00:33:31;15.70;92.30
26537;DHT22;14204;51.262;5.488;2023-06-04T00:35:57;15.60;91.90
26537;DHT22;14204;51.262;5.488;2023-06-04T00:38:23;15.60;92.00
26537;DHT22;14204;51.262;5.488;2023-06-04T00:40:49;15.50;92.00
26537;DHT22;14204;51.262;5.488;2023-06-04T00:43:15;15.50;91.50
26537;DHT22;14204;51.262;5.488;2023-06-04T00:45:40;15.50;92.00
26537;DHT22;14204;51.262;5.488;2023-06-04T00:48:07;15.50;92.40
26537;DHT22;14204;51.262;5.488;2023-06-04T00:50:33;15.50;92.10
26537;DHT22;14204;51.262;5.488;2023-06-04T00:53:01;15.50;92.30
26537;DHT22;14204;51.262;5.488;2023-06-04T00:55:27;15.50;92.30
26537;DHT22;14204;51.262;5.488;2023-06-04T00:57:53;15.40;92.50
26537;DHT22;14204;51.262;5.488;2023-06-04T01:00:19;15.40;92.10
26537;DHT22;14204;51.262;5.488;2023-06-04T01:02:49;15.40;92.20
26537;DHT22;14204;51.262;5.488;2023-06-04T01:05:41;15.30;92.30
26537;DHT22;14204;51.262;5.488;2023-06-04T01:08:09;15.30;92.80
26537;DHT22;14204;51.262;5.488;2023-06-04T01:10:36;15.30;93.00
26537;DHT22;14204;51.262;5.488;2023-06-04T01:13:01;15.20;93.10
26537;DHT22;14204;51.262;5.488;2023-06-04T01:15:27;15.30;92.50
26537;DHT22;14204;51.262;5.488;2023-06-04T01:17:58;15.20;92.40
26537;DHT22;14204;51.262;5.488;2023-06-04T01:20:40;15.20;93.00
26537;DHT22;14204;51.262;5.488;2023-06-04T01:26:09;15.10;93.10
26537;DHT22;14204;51.262;5.488;2023-06-04T01:28:36;15.10;93.60
26537;DHT22;14204;51.262;5.488;2023-06-04T01:31:04;15.00;93.50
26537;DHT22;14204;51.262;5.488;2023-06-04T01:33:33;15.00;94.30
26537;DHT22;14204;51.262;5.488;2023-06-04T01:35:59;15.00;94.00
26537;DHT22;14204;51.262;5.488;2023-06-04T01:38:26;15.00;93.70
26537;DHT22;14204;51.262;5.488;2023-06-04T01:40:52;14.90;94.90
26537;DHT22;14204;51.262;5.488;2023-06-04T01:43:24;14.90;94.30
26537;DHT22;14204;51.262;5.488;2023-06-04T01:45:50;14.90;94.00
26537;DHT22;14204;51.262;5.488;2023-06-04T01:48:15;14.90;94.70
26537;DHT22;14204;51.262;5.488;2023-06-04T01:50:41;14.90;95.00
26537;DHT22;14204;51.262;5.488;2023-06-04T01:53:07;14.90;95.40
26537;DHT22;14204;51.262;5.488;2023-06-04T01:55:32;14.80;95.20
26537;DHT22;14204;51.262;5.488;2023-06-04T01:57:59;14.80;94.50
26537;DHT22;14204;51.262;5.488;2023-06-04T02:00:24;14.80;94.30
26537;DHT22;14204;51.262;5.488;2023-06-04T02:02:51;14.80;94.20
26537;DHT22;14204;51.262;5.488;2023-06-04T02:05:17;14.80;94.80
26537;DHT22;14204;51.262;5.488;2023-06-04T02:07:45;14.80;94.50
26537;DHT22;14204;51.262;5.488;2023-06-04T02:10:12;14.80;95.80
26537;DHT22;14204;51.262;5.488;2023-06-04T02:12:40;14.70;94.70
26537;DHT22;14204;51.262;5.488;2023-06-04T02:15:09;14.70;95.90
26537;DHT22;14204;51.262;5.488;2023-06-04T02:17:35;14.70;95.80
26537;DHT22;14204;51.262;5.488;2023-06-04T02:20:05;14.70;95.30
26537;DHT22;14204;51.262;5.488;2023-06-04T02:22:31;14.70;95.50
26537;DHT22;14204;51.262;5.488;2023-06-04T02:24:57;14.70;95.40
26537;DHT22;14204;51.262;5.488;2023-06-04T02:27:23;14.60;95.20
26537;DHT22;14204;51.262;5.488;2023-06-04T02:29:48;14.60;95.80
26537;DHT22;14204;51.262;5.488;2023-06-04T02:32:14;14.60;96.50
26537;DHT22;14204;51.262;5.488;2023-06-04T02:34:40;14.60;95.90
26537;DHT22;14204;51.262;5.488;2023-06-04T02:37:06;14.60;96.40
26537;DHT22;14204;51.262;5.488;2023-06-04T02:39:31;14.60;96.60
26537;DHT22;14204;51.262;5.488;2023-06-04T02:41:57;14.50;96.30
26537;DHT22;14204;51.262;5.488;2023-06-04T02:44:22;14.50;96.20
26537;DHT22;14204;51.262;5.488;2023-06-04T02:46:48;14.50;96.30
26537;DHT22;14204;51.262;5.488;2023-06-04T02:49:14;14.50;96.70
26537;DHT22;14204;51.262;5.488;2023-06-04T02:51:43;14.40;96.70
26537;DHT22;14204;51.262;5.488;2023-06-04T02:54:09;14.40;96.70
26537;DHT22;14204;51.262;5.488;2023-06-04T02:56:36;14.40;98.80
26537;DHT22;14204;51.262;5.488;2023-06-04T02:59:02;14.40;97.30
26537;DHT22;14204;51.262;5.488;2023-06-04T03:01:28;14.40;97.70
26537;DHT22;14204;51.262;5.488;2023-06-04T03:03:55;14.30;98.70
26537;DHT22;14204;51.262;5.488;2023-06-04T03:06:21;14.20;98.70
26537;DHT22;14204;51.262;5.488;2023-06-04T03:08:48;14.30;97.80
26537;DHT22;14204;51.262;5.488;2023-06-04T03:11:14;14.30;98.30
26537;DHT22;14204;51.262;5.488;2023-06-04T03:13:40;14.30;97.90
26537;DHT22;14204;51.262;5.488;2023-06-04T03:16:06;14.30;98.40
26537;DHT22;14204;51.262;5.488;2023-06-04T03:18:41;14.30;98.80
26537;DHT22;14204;51.262;5.488;2023-06-04T03:21:07;14.30;98.70
26537;DHT22;14204;51.262;5.488;2023-06-04T03:23:34;14.30;98.60
26537;DHT22;14204;51.262;5.488;2023-06-04T03:26:04;14.30;98.70
26537;DHT22;14204;51.262;5.488;2023-06-04T03:28:31;14.20;98.60
26537;DHT22;14204;51.262;5.488;2023-06-04T03:30:56;14.20;98.80
26537;DHT22;14204;51.262;5.488;2023-06-04T03:33:22;14.20;98.40
26537;DHT22;14204;51.262;5.488;2023-06-04T03:35:48;14.10;98.40
26537;DHT22;14204;51.262;5.488;2023-06-04T03:38:14;14.10;99.80
26537;DHT22;14204;51.262;5.488;2023-06-04T03:40:41;14.20;99.50
26537;DHT22;14204;51.262;5.488;2023-06-04T03:43:06;14.10;98.60
26537;DHT22;14204;51.262;5.488;2023-06-04T03:45:32;14.10;99.40
26537;DHT22;14204;51.262;5.488;2023-06-04T03:47:58;14.10;99.90
26537;DHT22;14204;51.262;5.488;2023-06-04T03:50:23;14.10;99.90
26537;DHT22;14204;51.262;5.488;2023-06-04T03:52:49;14.10;99.90
26537;DHT22;14204;51.262;5.488;2023-06-04T03:55:15;14.00;99.90
26537;DHT22;14204;51.262;5.488;2023-06-04T03:57:41;14.00;99.90
26537;DHT22;14204;51.262;5.488;2023-06-04T04:00:10;14.00;99.90
26537;DHT22;14204;51.262;5.488;2023-06-04T04:02:39;14.00;99.90
26537;DHT22;14204;51.262;5.488;2023-06-04T04:05:05;14.00;99.90
26537;DHT22;14204;51.262;5.488;2023-06-04T04:07:31;14.00;99.80
26537;DHT22;14204;51.262;5.488;2023-06-04T04:09:57;14.00;99.70
26537;DHT22;14204;51.262;5.488;2023-06-04T04:12:22;14.10;99.80
26537;DHT22;14204;51.262;5.488;2023-06-04T04:14:48;14.00;99.90
26537;DHT22;14204;51.262;5.488;2023-06-04T04:17:14;14.00;99.90
26537;DHT22;14204;51.262;5.488;2023-06-04T04:19:40;14.00;99.90
26537;DHT22;14204;51.262;5.488;2023-06-04T04:22:06;14.00;99.90
26537;DHT22;14204;51.262;5.488;2023-06-04T04:24:34;14.00;99.90
26537;DHT22;14204;51.262;5.488;2023-06-04T04:27:03;14.00;99.90
26537;DHT22;14204;51.262;5.488;2023-06-04T04:29:29;13.90;99.90
26537;DHT22;14204;51.262;5.488;2023-06-04T04:31:59;13.90;99.90
26537;DHT22;14204;51.262;5.488;2023-06-04T04:34:27;13.90;99.90
26537;DHT22;14204;51.262;5.488;2023-06-04T04:36:54;13.90;99.90
26537;DHT22;14204;51.262;5.488;2023-06-04T04:39:23;13.90;99.90
26537;DHT22;14204;51.262;5.488;2023-06-04T04:41:51;13.90;99.90
26537;DHT22;14204;51.262;5.488;2023-06-04T04:44:18;13.90;99.90
26537;DHT22;14204;51.262;5.488;2023-06-04T04:46:43;14.00;99.90
26537;DHT22;14204;51.262;5.488;2023-06-04T04:49:09;14.00;99.90
26537;DHT22;14204;51.262;5.488;2023-06-04T04:51:35;14.00;99.90
26537;DHT22;14204;51.262;5.488;2023-06-04T04:54:01;13.90;99.90
26537;DHT22;14204;51.262;5.488;2023-06-04T04:56:27;13.90;99.90
26537;DHT22;14204;51.262;5.488;2023-06-04T04:58:53;14.00;99.90
26537;DHT22;14204;51.262;5.488;2023-06-04T05:01:19;14.10;99.90
26537;DHT22;14204;51.262;5.488;2023-06-04T05:03:45;14.20;99.90
26537;DHT22;14204;51.262;5.488;2023-06-04T05:06:11;14.20;99.90
26537;DHT22;14204;51.262;5.488;2023-06-04T05:08:37;14.30;99.90
26537;DHT22;14204;51.262;5.488;2023-06-04T05:11:03;14.30;99.90
26537;DHT22;14204;51.262;5.488;2023-06-04T05:13:28;14.30;99.90
26537;DHT22;14204;51.262;5.488;2023-06-04T05:15:54;14.40;99.90
26537;DHT22;14204;51.262;5.488;2023-06-04T05:18:20;14.40;99.90
26537;DHT22;14204;51.262;5.488;2023-06-04T05:20:55;14.40;99.90
26537;DHT22;14204;51.262;5.488;2023-06-04T05:23:20;14.40;99.90
26537;DHT22;14204;51.262;5.488;2023-06-04T05:25:46;14.30;99.90
26537;DHT22;14204;51.262;5.488;2023-06-04T05:28:14;14.40;99.90
26537;DHT22;14204;51.262;5.488;2023-06-04T05:30:40;14.40;99.90
26537;DHT22;14204;51.262;5.488;2023-06-04T05:33:07;14.40;99.90
26537;DHT22;14204;51.262;5.488;2023-06-04T05:35:45;14.50;99.90
26537;DHT22;14204;51.262;5.488;2023-06-04T05:38:11;14.50;99.90
26537;DHT22;14204;51.262;5.488;2023-06-04T05:40:43;14.50;99.90
26537;DHT22;14204;51.262;5.488;2023-06-04T05:43:08;14.60;99.90
26537;DHT22;14204;51.262;5.488;2023-06-04T05:45:34;14.50;99.90
26537;DHT22;14204;51.262;5.488;2023-06-04T05:48:00;14.50;99.90
26537;DHT22;14204;51.262;5.488;2023-06-04T05:50:25;14.60;99.90
26537;DHT22;14204;51.262;5.488;2023-06-04T05:52:51;14.70;99.90
26537;DHT22;14204;51.262;5.488;2023-06-04T05:55:17;14.70;99.90
26537;DHT22;14204;51.262;5.488;2023-06-04T05:57:42;14.70;99.90
26537;DHT22;14204;51.262;5.488;2023-06-04T06:00:08;14.70;99.90
26537;DHT22;14204;51.262;5.488;2023-06-04T06:02:36;14.80;99.90
26537;DHT22;14204;51.262;5.488;2023-06-04T06:05:03;14.80;99.90
26537;DHT22;14204;51.262;5.488;2023-06-04T06:07:29;14.80;99.90
26537;DHT22;14204;51.262;5.488;2023-06-04T06:09:55;14.90;99.90
26537;DHT22;14204;51.262;5.488;2023-06-04T06:12:21;14.90;99.90
26537;DHT22;14204;51.262;5.488;2023-06-04T06:14:46;14.90;99.90
26537;DHT22;14204;51.262;5.488;2023-06-04T06:17:12;15.00;99.90
26537;DHT22;14204;51.262;5.488;2023-06-04T06:19:38;15.00;99.90
26537;DHT22;14204;51.262;5.488;2023-06-04T06:22:03;15.10;99.90
26537;DHT22;14204;51.262;5.488;2023-06-04T06:24:30;15.00;99.90
26537;DHT22;14204;51.262;5.488;2023-06-04T06:26:55;15.10;99.90
26537;DHT22;14204;51.262;5.488;2023-06-04T06:29:21;15.20;99.90
26537;DHT22;14204;51.262;5.488;2023-06-04T06:31:47;15.30;99.90
26537;DHT22;14204;51.262;5.488;2023-06-04T06:34:13;15.30;99.90
26537;DHT22;14204;51.262;5.488;2023-06-04T06:36:38;15.40;99.90
26537;DHT22;14204;51.262;5.488;2023-06-04T06:39:04;15.50;99.90
26537;DHT22;14204;51.262;5.488;2023-06-04T06:41:30;15.60;99.90
26537;DHT22;14204;51.262;5.488;2023-06-04T06:43:59;15.70;99.90
26537;DHT22;14204;51.262;5.488;2023-06-04T06:46:24;15.70;99.90
26537;DHT22;14204;51.262;5.488;2023-06-04T06:48:50;15.80;99.90
26537;DHT22;14204;51.262;5.488;2023-06-04T06:51:16;15.90;99.90
26537;DHT22;14204;51.262;5.488;2023-06-04T06:53:42;16.10;99.90
26537;DHT22;14204;51.262;5.488;2023-06-04T06:56:08;16.30;99.90
26537;DHT22;14204;51.262;5.488;2023-06-04T06:58:34;16.40;99.90
26537;DHT22;14204;51.262;5.488;2023-06-04T07:00:59;16.60;99.90
26537;DHT22;14204;51.262;5.488;2023-06-04T07:03:25;16.70;99.90
26537;DHT22;14204;51.262;5.488;2023-06-04T07:05:51;16.90;99.90
26537;DHT22;14204;51.262;5.488;2023-06-04T07:08:17;17.10;99.90
26537;DHT22;14204;51.262;5.488;2023-06-04T07:10:43;17.30;99.90
26537;DHT22;14204;51.262;5.488;2023-06-04T07:13:09;17.40;99.90
26537;DHT22;14204;51.262;5.488;2023-06-04T07:15:35;17.50;99.90
26537;DHT22;14204;51.262;5.488;2023-06-04T07:18:00;17.60;99.90
26537;DHT22;14204;51.262;5.488;2023-06-04T07:20:26;17.70;99.90
26537;DHT22;14204;51.262;5.488;2023-06-04T07:22:52;17.80;99.90
26537;DHT22;14204;51.262;5.488;2023-06-04T07:25:17;17.90;99.90
26537;DHT22;14204;51.262;5.488;2023-06-04T07:27:43;18.10;99.90
26537;DHT22;14204;51.262;5.488;2023-06-04T07:30:09;18.10;99.90
26537;DHT22;14204;51.262;5.488;2023-06-04T07:32:35;18.20;99.90
26537;DHT22;14204;51.262;5.488;2023-06-04T07:35:02;18.30;99.90
26537;DHT22;14204;51.262;5.488;2023-06-04T07:37:27;18.40;99.00
26537;DHT22;14204;51.262;5.488;2023-06-04T07:39:53;18.30;99.90
26537;DHT22;14204;51.262;5.488;2023-06-04T07:42:19;18.40;98.30
26537;DHT22;14204;51.262;5.488;2023-06-04T07:44:45;18.60;99.60
26537;DHT22;14204;51.262;5.488;2023-06-04T07:47:10;18.80;99.90
26537;DHT22;14204;51.262;5.488;2023-06-04T07:49:36;18.90;98.50
26537;DHT22;14204;51.262;5.488;2023-06-04T07:52:02;18.90;99.20
26537;DHT22;14204;51.262;5.488;2023-06-04T07:54:27;19.20;98.90
26537;DHT22;14204;51.262;5.488;2023-06-04T07:56:53;19.30;97.80
26537;DHT22;14204;51.262;5.488;2023-06-04T07:59:22;19.30;99.00
26537;DHT22;14204;51.262;5.488;2023-06-04T08:01:50;19.30;99.10
26537;DHT22;14204;51.262;5.488;2023-06-04T08:04:16;19.40;98.20
26537;DHT22;14204;51.262;5.488;2023-06-04T08:06:42;19.60;97.90
26537;DHT22;14204;51.262;5.488;2023-06-04T08:09:10;19.90;96.60
26537;DHT22;14204;51.262;5.488;2023-06-04T08:11:37;20.10;97.50
26537;DHT22;14204;51.262;5.488;2023-06-04T08:14:02;20.10;99.30
26537;DHT22;14204;51.262;5.488;2023-06-04T08:16:37;20.20;97.20
26537;DHT22;14204;51.262;5.488;2023-06-04T08:19:02;20.20;96.10
26537;DHT22;14204;51.262;5.488;2023-06-04T08:21:29;20.30;95.60
26537;DHT22;14204;51.262;5.488;2023-06-04T08:23:54;20.40;95.70
26537;DHT22;14204;51.262;5.488;2023-06-04T08:26:21;20.70;95.10
26537;DHT22;14204;51.262;5.488;2023-06-04T08:28:50;20.80;95.10
26537;DHT22;14204;51.262;5.488;2023-06-04T08:31:16;21.00;96.00
26537;DHT22;14204;51.262;5.488;2023-06-04T08:33:44;21.20;94.40
26537;DHT22;14204;51.262;5.488;2023-06-04T08:36:10;21.30;95.50
26537;DHT22;14204;51.262;5.488;2023-06-04T08:38:36;21.50;94.90
26537;DHT22;14204;51.262;5.488;2023-06-04T08:41:09;21.60;93.80
26537;DHT22;14204;51.262;5.488;2023-06-04T08:43:39;21.80;93.40
26537;DHT22;14204;51.262;5.488;2023-06-04T08:46:05;21.80;94.00
26537;DHT22;14204;51.262;5.488;2023-06-04T08:48:35;21.80;93.10
26537;DHT22;14204;51.262;5.488;2023-06-04T08:51:02;21.80;92.50
26537;DHT22;14204;51.262;5.488;2023-06-04T08:53:31;22.10;92.90
26537;DHT22;14204;51.262;5.488;2023-06-04T08:55:57;22.20;91.90
26537;DHT22;14204;51.262;5.488;2023-06-04T08:58:23;22.30;93.30
26537;DHT22;14204;51.262;5.488;2023-06-04T09:00:50;22.60;92.70
26537;DHT22;14204;51.262;5.488;2023-06-04T09:03:16;22.50;91.60
26537;DHT22;14204;51.262;5.488;2023-06-04T09:05:44;22.60;90.90
26537;DHT22;14204;51.262;5.488;2023-06-04T09:08:14;22.90;90.40
26537;DHT22;14204;51.262;5.488;2023-06-04T09:10:44;23.10;90.80
26537;DHT22;14204;51.262;5.488;2023-06-04T09:13:13;23.20;89.40
26537;DHT22;14204;51.262;5.488;2023-06-04T09:15:40;23.40;91.50
26537;DHT22;14204;51.262;5.488;2023-06-04T09:18:06;23.40;91.60
26537;DHT22;14204;51.262;5.488;2023-06-04T09:20:31;23.40;88.80
26537;DHT22;14204;51.262;5.488;2023-06-04T09:22:58;23.40;85.50
26537;DHT22;14204;51.262;5.488;2023-06-04T09:25:25;23.60;88.20
26537;DHT22;14204;51.262;5.488;2023-06-04T09:27:53;23.80;89.00
26537;DHT22;14204;51.262;5.488;2023-06-04T09:30:21;23.80;85.20
26537;DHT22;14204;51.262;5.488;2023-06-04T09:32:47;23.90;84.10
26537;DHT22;14204;51.262;5.488;2023-06-04T09:35:17;24.00;83.00
26537;DHT22;14204;51.262;5.488;2023-06-04T09:37:52;24.20;83.70
26537;DHT22;14204;51.262;5.488;2023-06-04T09:40:18;24.10;87.40
26537;DHT22;14204;51.262;5.488;2023-06-04T09:42:46;24.30;85.70
26537;DHT22;14204;51.262;5.488;2023-06-04T09:45:30;24.40;83.60
26537;DHT22;14204;51.262;5.488;2023-06-04T09:47:57;24.40;81.90
26537;DHT22;14204;51.262;5.488;2023-06-04T09:50:30;24.40;79.80
26537;DHT22;14204;51.262;5.488;2023-06-04T09:52:56;24.40;80.90
26537;DHT22;14204;51.262;5.488;2023-06-04T09:55:22;24.50;77.00
26537;DHT22;14204;51.262;5.488;2023-06-04T09:57:49;24.50;79.40
26537;DHT22;14204;51.262;5.488;2023-06-04T10:00:23;24.60;80.20
26537;DHT22;14204;51.262;5.488;2023-06-04T10:02:57;24.80;76.90
26537;DHT22;14204;51.262;5.488;2023-06-04T10:05:25;24.90;78.10
26537;DHT22;14204;51.262;5.488;2023-06-04T10:07:52;24.80;77.40
26537;DHT22;14204;51.262;5.488;2023-06-04T10:10:23;24.80;72.50
26537;DHT22;14204;51.262;5.488;2023-06-04T10:12:57;24.80;75.70
26537;DHT22;14204;51.262;5.488;2023-06-04T10:15:26;24.80;71.80
26537;DHT22;14204;51.262;5.488;2023-06-04T10:17:53;24.80;75.00
26537;DHT22;14204;51.262;5.488;2023-06-04T10:20:19;25.10;74.50
26537;DHT22;14204;51.262;5.488;2023-06-04T10:22:48;25.00;74.90
26537;DHT22;14204;51.262;5.488;2023-06-04T10:25:14;25.20;75.30
26537;DHT22;14204;51.262;5.488;2023-06-04T10:27:40;25.30;74.60
26537;DHT22;14204;51.262;5.488;2023-06-04T10:30:07;25.20;73.40
26537;DHT22;14204;51.262;5.488;2023-06-04T10:32:34;25.10;71.90
26537;DHT22;14204;51.262;5.488;2023-06-04T10:35:07;25.40;72.00
26537;DHT22;14204;51.262;5.488;2023-06-04T10:37:34;25.60;73.90
26537;DHT22;14204;51.262;5.488;2023-06-04T10:39:59;25.60;76.10
26537;DHT22;14204;51.262;5.488;2023-06-04T10:42:25;25.60;71.40
26537;DHT22;14204;51.262;5.488;2023-06-04T10:44:53;25.60;71.00
26537;DHT22;14204;51.262;5.488;2023-06-04T10:47:24;25.80;76.00
26537;DHT22;14204;51.262;5.488;2023-06-04T10:49:51;26.40;81.40
26537;DHT22;14204;51.262;5.488;2023-06-04T10:52:18;26.20;71.40
26537;DHT22;14204;51.262;5.488;2023-06-04T10:54:44;26.20;70.70
26537;DHT22;14204;51.262;5.488;2023-06-04T10:57:15;26.20;69.00
26537;DHT22;14204;51.262;5.488;2023-06-04T10:59:57;26.10;70.20
26537;DHT22;14204;51.262;5.488;2023-06-04T11:02:23;25.90;70.80
26537;DHT22;14204;51.262;5.488;2023-06-04T11:07:27;26.40;65.80
26537;DHT22;14204;51.262;5.488;2023-06-04T11:09:53;26.50;68.40
26537;DHT22;14204;51.262;5.488;2023-06-04T11:12:19;26.60;67.40
26537;DHT22;14204;51.262;5.488;2023-06-04T11:14:54;26.30;69.90
26537;DHT22;14204;51.262;5.488;2023-06-04T11:17:20;26.30;69.70
26537;DHT22;14204;51.262;5.488;2023-06-04T11:19:46;26.40;66.20
26537;DHT22;14204;51.262;5.488;2023-06-04T11:22:12;26.40;68.00
26537;DHT22;14204;51.262;5.488;2023-06-04T11:24:38;26.50;66.40
26537;DHT22;14204;51.262;5.488;2023-06-04T11:27:04;26.60;66.30
26537;DHT22;14204;51.262;5.488;2023-06-04T11:29:30;26.40;64.10
26537;DHT22;14204;51.262;5.488;2023-06-04T11:31:55;26.40;64.80
26537;DHT22;14204;51.262;5.488;2023-06-04T11:34:27;26.40;64.70
26537;DHT22;14204;51.262;5.488;2023-06-04T11:36:53;26.60;67.40
26537;DHT22;14204;51.262;5.488;2023-06-04T11:39:19;26.60;66.00
26537;DHT22;14204;51.262;5.488;2023-06-04T11:41:46;26.50;64.80
26537;DHT22;14204;51.262;5.488;2023-06-04T11:44:12;26.70;64.40
26537;DHT22;14204;51.262;5.488;2023-06-04T11:46:44;26.90;62.80
26537;DHT22;14204;51.262;5.488;2023-06-04T11:49:16;26.90;60.70
26537;DHT22;14204;51.262;5.488;2023-06-04T11:51:51;27.10;62.10
26537;DHT22;14204;51.262;5.488;2023-06-04T11:54:17;27.00;62.90
26537;DHT22;14204;51.262;5.488;2023-06-04T11:56:44;27.10;62.10
26537;DHT22;14204;51.262;5.488;2023-06-04T11:59:14;27.10;62.70
26537;DHT22;14204;51.262;5.488;2023-06-04T12:01:45;27.20;62.40
26537;DHT22;14204;51.262;5.488;2023-06-04T12:04:15;26.80;58.90
26537;DHT22;14204;51.262;5.488;2023-06-04T12:06:58;26.90;59.80
26537;DHT22;14204;51.262;5.488;2023-06-04T12:09:30;27.00;62.40
26537;DHT22;14204;51.262;5.488;2023-06-04T12:12:07;27.20;63.60
26537;DHT22;14204;51.262;5.488;2023-06-04T12:14:33;27.30;64.50
26537;DHT22;14204;51.262;5.488;2023-06-04T12:17:01;27.40;62.70
26537;DHT22;14204;51.262;5.488;2023-06-04T12:19:27;27.50;60.90
26537;DHT22;14204;51.262;5.488;2023-06-04T12:22:01;27.40;65.00
26537;DHT22;14204;51.262;5.488;2023-06-04T12:24:27;27.20;61.80
26537;DHT22;14204;51.262;5.488;2023-06-04T12:27:08;27.30;60.90
26537;DHT22;14204;51.262;5.488;2023-06-04T12:29:34;27.10;59.80
26537;DHT22;14204;51.262;5.488;2023-06-04T12:32:05;27.20;62.30
26537;DHT22;14204;51.262;5.488;2023-06-04T12:34:33;27.30;63.00
26537;DHT22;14204;51.262;5.488;2023-06-04T12:37:00;27.50;61.00
26537;DHT22;14204;51.262;5.488;2023-06-04T12:39:26;27.60;62.90
26537;DHT22;14204;51.262;5.488;2023-06-04T12:41:51;27.60;63.20
26537;DHT22;14204;51.262;5.488;2023-06-04T12:44:17;27.60;62.40
26537;DHT22;14204;51.262;5.488;2023-06-04T12:46:42;27.70;62.70
26537;DHT22;14204;51.262;5.488;2023-06-04T12:49:08;27.60;64.60
26537;DHT22;14204;51.262;5.488;2023-06-04T12:51:34;27.80;66.20
26537;DHT22;14204;51.262;5.488;2023-06-04T12:53:59;27.80;61.60
26537;DHT22;14204;51.262;5.488;2023-06-04T12:56:25;27.70;64.40
26537;DHT22;14204;51.262;5.488;2023-06-04T12:58:51;27.80;62.50
26537;DHT22;14204;51.262;5.488;2023-06-04T13:01:17;27.90;64.10
26537;DHT22;14204;51.262;5.488;2023-06-04T13:03:43;27.70;60.80
26537;DHT22;14204;51.262;5.488;2023-06-04T13:06:08;27.80;64.00
26537;DHT22;14204;51.262;5.488;2023-06-04T13:08:34;27.90;65.50
26537;DHT22;14204;51.262;5.488;2023-06-04T13:11:01;27.70;59.90
26537;DHT22;14204;51.262;5.488;2023-06-04T13:13:27;27.60;61.00
26537;DHT22;14204;51.262;5.488;2023-06-04T13:15:53;27.70;63.50
26537;DHT22;14204;51.262;5.488;2023-06-04T13:18:19;27.60;66.20
26537;DHT22;14204;51.262;5.488;2023-06-04T13:20:45;27.80;63.70
26537;DHT22;14204;51.262;5.488;2023-06-04T13:23:10;27.80;62.20
26537;DHT22;14204;51.262;5.488;2023-06-04T13:25:39;27.80;62.80
26537;DHT22;14204;51.262;5.488;2023-06-04T13:28:05;27.70;62.60
26537;DHT22;14204;51.262;5.488;2023-06-04T13:30:31;27.60;60.90
26537;DHT22;14204;51.262;5.488;2023-06-04T13:32:57;27.80;61.50
26537;DHT22;14204;51.262;5.488;2023-06-04T13:35:25;27.70;60.50
26537;DHT22;14204;51.262;5.488;2023-06-04T13:37:51;27.80;60.80
26537;DHT22;14204;51.262;5.488;2023-06-04T13:40:16;28.00;61.60
26537;DHT22;14204;51.262;5.488;2023-06-04T13:42:42;27.70;58.70
26537;DHT22;14204;51.262;5.488;2023-06-04T13:45:08;27.60;60.50
26537;DHT22;14204;51.262;5.488;2023-06-04T13:47:34;27.60;60.30
26537;DHT22;14204;51.262;5.488;2023-06-04T13:50:00;27.70;59.50
26537;DHT22;14204;51.262;5.488;2023-06-04T13:52:26;27.80;63.20
26537;DHT22;14204;51.262;5.488;2023-06-04T13:54:54;28.00;65.40
26537;DHT22;14204;51.262;5.488;2023-06-04T13:57:19;28.10;59.90
26537;DHT22;14204;51.262;5.488;2023-06-04T13:59:45;27.80;61.10
26537;DHT22;14204;51.262;5.488;2023-06-04T14:02:11;27.70;61.20
26537;DHT22;14204;51.262;5.488;2023-06-04T14:04:37;27.50;61.80
26537;DHT22;14204;51.262;5.488;2023-06-04T14:07:03;27.70;61.70
26537;DHT22;14204;51.262;5.488;2023-06-04T14:09:28;27.50;62.70
26537;DHT22;14204;51.262;5.488;2023-06-04T14:11:54;27.40;59.40
26537;DHT22;14204;51.262;5.488;2023-06-04T14:14:20;27.60;61.90
26537;DHT22;14204;51.262;5.488;2023-06-04T14:16:47;27.60;60.60
26537;DHT22;14204;51.262;5.488;2023-06-04T14:19:14;27.50;60.60
26537;DHT22;14204;51.262;5.488;2023-06-04T14:21:41;27.60;62.20
26537;DHT22;14204;51.262;5.488;2023-06-04T14:24:07;27.70;62.00
26537;DHT22;14204;51.262;5.488;2023-06-04T14:26:32;27.90;62.70
26537;DHT22;14204;51.262;5.488;2023-06-04T14:28:59;27.70;60.60
26537;DHT22;14204;51.262;5.488;2023-06-04T14:31:25;27.60;64.20
26537;DHT22;14204;51.262;5.488;2023-06-04T14:33:50;27.70;60.00
26537;DHT22;14204;51.262;5.488;2023-06-04T14:36:16;27.50;60.20
26537;DHT22;14204;51.262;5.488;2023-06-04T14:38:42;27.40;61.00
26537;DHT22;14204;51.262;5.488;2023-06-04T14:41:09;27.70;62.20
26537;DHT22;14204;51.262;5.488;2023-06-04T14:43:34;27.70;63.60
26537;DHT22;14204;51.262;5.488;2023-06-04T14:46:00;27.60;61.50
26537;DHT22;14204;51.262;5.488;2023-06-04T14:48:26;27.70;66.10
26537;DHT22;14204;51.262;5.488;2023-06-04T14:50:51;27.60;61.30
26537;DHT22;14204;51.262;5.488;2023-06-04T14:53:21;27.40;62.10
26537;DHT22;14204;51.262;5.488;2023-06-04T14:55:47;27.50;59.10
26537;DHT22;14204;51.262;5.488;2023-06-04T14:58:14;27.40;61.90
26537;DHT22;14204;51.262;5.488;2023-06-04T15:00:41;27.30;62.10
26537;DHT22;14204;51.262;5.488;2023-06-04T15:03:07;27.30;60.00
26537;DHT22;14204;51.262;5.488;2023-06-04T15:05:32;27.30;60.90
26537;DHT22;14204;51.262;5.488;2023-06-04T15:07:59;27.20;62.10
26537;DHT22;14204;51.262;5.488;2023-06-04T15:10:25;27.20;63.20
26537;DHT22;14204;51.262;5.488;2023-06-04T15:12:52;27.30;63.50
26537;DHT22;14204;51.262;5.488;2023-06-04T15:15:18;27.10;61.60
26537;DHT22;14204;51.262;5.488;2023-06-04T15:17:44;27.20;63.80
26537;DHT22;14204;51.262;5.488;2023-06-04T15:20:10;27.30;63.70
26537;DHT22;14204;51.262;5.488;2023-06-04T15:22:36;27.30;62.70
26537;DHT22;14204;51.262;5.488;2023-06-04T15:25:02;27.20;64.10
26537;DHT22;14204;51.262;5.488;2023-06-04T15:27:28;27.30;63.90
26537;DHT22;14204;51.262;5.488;2023-06-04T15:29:54;27.30;63.90
26537;DHT22;14204;51.262;5.488;2023-06-04T15:32:20;27.00;62.60
26537;DHT22;14204;51.262;5.488;2023-06-04T15:34:46;27.10;64.20